Time;durP1;ratioP1;P1;durP2;ratioP2;P2;SDS_P1;SDS_P2;PMS_P1;PMS_P2;Temp;Humidity;BMP_temperature;BMP_pressure;BME280_temperature;BME280_humidity;BME280_pressure;Samples;Min_cycle;Max_cycle;Signal;HPM_P1;HPM_P2
2023/03/07 00:00:33;;;;;;;19.63;18.13;;;5.60;26.70;;;;;;4951136;29;20481;-59
2023/03/07 00:02:59;;;;;;;17.90;16.60;;;5.50;26.70;;;;;;4951203;29;20290;-59
2023/03/07 00:05:24;;;;;;;19.37;17.90;;;5.60;27.00;;;;;;4951068;29;20549;-60
2023/03/07 00:07:50;;;;;;;20.20;18.60;;;5.80;26.10;;;;;;4950658;29;20195;-60
2023/03/07 00:10:16;;;;;;;18.20;16.90;;;5.80;26.20;;;;;;4950948;29;20183;-59
2023/03/07 00:12:42;;;;;;;16.67;15.47;;;6.00;26.20;;;;;;4951499;29;20179;-60
2023/03/07 00:15:09;;;;;;;18.63;17.23;;;6.10;25.60;;;;;;4951125;28;20427;-60
2023/03/07 00:17:38;;;;;;;17.90;16.40;;;6.00;26.00;;;;;;4951245;29;20423;-60
2023/03/07 00:20:06;;;;;;;18.20;16.90;;;5.90;25.80;;;;;;4951620;28;20486;-60
2023/03/07 00:22:32;;;;;;;18.13;16.70;;;6.00;25.70;;;;;;4950563;29;20462;-60
2023/03/07 00:24:58;;;;;;;17.23;16.00;;;5.80;25.90;;;;;;4952539;28;20470;-60
2023/03/07 00:27:24;;;;;;;17.73;16.53;;;5.80;25.90;;;;;;4950711;29;20430;-58
2023/03/07 00:29:50;;;;;;;18.37;17.07;;;5.90;25.90;;;;;;4950394;29;20831;-59
2023/03/07 00:32:16;;;;;;;15.90;14.80;;;5.90;25.80;;;;;;4950893;29;20244;-60
2023/03/07 00:34:41;;;;;;;17.70;16.50;;;5.90;25.50;;;;;;4966702;28;20186;-58
2023/03/07 00:37:07;;;;;;;18.60;17.03;;;5.80;25.60;;;;;;4950679;29;20936;-59
2023/03/07 00:39:32;;;;;;;20.83;18.73;;;5.60;26.10;;;;;;4949614;28;20183;-60
2023/03/07 00:41:59;;;;;;;16.83;15.63;;;5.40;26.00;;;;;;4951058;29;20224;-58
2023/03/07 00:44:26;;;;;;;17.87;16.37;;;5.40;26.60;;;;;;4949797;28;20230;-60
2023/03/07 00:46:52;;;;;;;15.87;14.70;;;5.30;26.60;;;;;;4950755;29;20807;-59
2023/03/07 00:49:19;;;;;;;17.53;16.27;;;5.30;26.50;;;;;;4949794;28;20422;-60
2023/03/07 00:51:45;;;;;;;18.60;17.30;;;5.20;26.80;;;;;;4950108;29;20775;-59
2023/03/07 00:54:11;;;;;;;17.77;16.57;;;5.40;26.50;;;;;;4950651;29;20515;-59
2023/03/07 00:56:36;;;;;;;17.70;16.40;;;5.30;26.60;;;;;;4950139;29;20438;-60
2023/03/07 00:59:02;;;;;;;19.13;17.73;;;5.30;26.40;;;;;;4949808;29;21492;-60
2023/03/07 01:01:28;;;;;;;17.17;15.87;;;5.00;26.80;;;;;;4950095;29;20187;-59
2023/03/07 01:03:54;;;;;;;17.10;15.77;;;5.10;27.40;;;;;;4950343;28;20191;-56
2023/03/07 01:06:23;;;;;;;17.97;16.60;;;5.10;27.00;;;;;;4950817;29;20218;-57
2023/03/07 01:08:49;;;;;;;18.03;16.80;;;5.00;26.90;;;;;;4966061;28;20447;-58
2023/03/07 01:11:15;;;;;;;17.93;16.63;;;5.00;27.10;;;;;;4949440;29;20415;-59
2023/03/07 01:13:41;;;;;;;18.10;16.70;;;5.10;26.80;;;;;;4966064;28;20234;-59
2023/03/07 01:16:15;;;;;;;18.53;17.13;;;5.00;26.90;;;;;;4950074;29;20418;-60
2023/03/07 01:18:42;;;;;;;19.10;17.40;;;5.00;27.00;;;;;;4950799;29;20179;-60
2023/03/07 01:21:17;;;;;;;18.00;16.70;;;5.10;26.70;;;;;;4950104;29;20419;-60
2023/03/07 01:23:43;;;;;;;18.37;17.03;;;5.20;26.20;;;;;;4965883;28;20435;-60
2023/03/07 01:26:23;;;;;;;16.70;15.57;;;5.20;26.40;;;;;;4951336;28;20557;-61
2023/03/07 01:28:50;;;;;;;18.23;16.93;;;5.30;25.70;;;;;;4950963;29;20820;-60
2023/03/07 01:31:16;;;;;;;16.90;15.60;;;5.50;25.50;;;;;;4948965;28;20912;-60
2023/03/07 01:33:41;;;;;;;17.47;16.20;;;5.60;25.20;;;;;;4948839;29;20470;-60
2023/03/07 01:36:17;;;;;;;17.87;16.60;;;5.70;24.60;;;;;;4950125;28;20194;-60
2023/03/07 01:38:43;;;;;;;16.47;15.30;;;5.60;25.10;;;;;;4944080;29;20281;-59
2023/03/07 01:41:08;;;;;;;15.93;14.87;;;5.80;24.40;;;;;;4948943;29;20510;-61
2023/03/07 01:43:34;;;;;;;17.63;16.50;;;5.90;24.10;;;;;;4949120;29;20210;-59
2023/03/07 01:46:18;;;;;;;16.10;15.10;;;6.00;23.50;;;;;;4949439;29;20219;-60
2023/03/07 01:48:49;;;;;;;16.37;15.17;;;6.00;23.50;;;;;;4942674;29;20211;-60
2023/03/07 01:51:16;;;;;;;17.37;16.07;;;5.90;23.40;;;;;;4948946;28;20537;-60
2023/03/07 01:53:42;;;;;;;17.50;16.37;;;5.60;23.90;;;;;;4949409;28;20820;-60
2023/03/07 01:56:08;;;;;;;16.80;15.60;;;5.50;24.00;;;;;;4948697;28;20785;-60
2023/03/07 01:58:37;;;;;;;16.40;15.20;;;5.70;24.00;;;;;;4949577;29;20847;-61
2023/03/07 02:01:05;;;;;;;15.57;14.60;;;5.80;23.30;;;;;;4964664;28;20427;-61
2023/03/07 02:03:40;;;;;;;17.57;15.73;;;5.60;23.40;;;;;;4948816;29;20445;-60
2023/03/07 02:06:11;;;;;;;16.17;14.97;;;5.50;23.60;;;;;;4945276;29;20469;-59
2023/03/07 02:08:38;;;;;;;15.40;14.17;;;5.60;23.90;;;;;;4948849;28;20799;-60
2023/03/07 02:11:06;;;;;;;17.40;16.20;;;5.90;23.10;;;;;;4948782;29;20778;-59
2023/03/07 02:13:31;;;;;;;17.00;15.80;;;6.20;22.90;;;;;;4948835;29;21010;-60
2023/03/07 02:16:00;;;;;;;16.10;15.03;;;6.10;22.50;;;;;;4965055;28;20506;-61
2023/03/07 02:18:29;;;;;;;15.90;14.90;;;6.20;22.30;;;;;;4948399;29;20438;-60
2023/03/07 02:21:02;;;;;;;15.50;14.40;;;6.00;22.30;;;;;;4952129;28;20433;-60
2023/03/07 02:23:34;;;;;;;16.97;15.87;;;5.50;23.60;;;;;;4965269;28;20773;-60
2023/03/07 02:26:28;;;;;;;17.47;16.17;;;5.50;23.50;;;;;;4964961;28;20517;-60
2023/03/07 02:28:54;;;;;;;17.20;15.90;;;5.50;23.90;;;;;;4959126;28;20931;-59
2023/03/07 02:31:21;;;;;;;16.90;15.60;;;5.40;23.90;;;;;;4948587;29;20419;-60
2023/03/07 02:33:46;;;;;;;16.43;15.33;;;5.50;23.60;;;;;;4949144;28;20419;-60
2023/03/07 02:36:15;;;;;;;16.63;15.50;;;5.50;23.60;;;;;;4948110;28;20530;-60
2023/03/07 02:38:44;;;;;;;16.53;15.47;;;5.30;23.90;;;;;;4949965;29;20193;-57
2023/03/07 02:41:11;;;;;;;17.10;15.90;;;5.20;24.30;;;;;;4948594;29;20448;-60
2023/03/07 02:43:37;;;;;;;16.90;15.70;;;5.40;24.20;;;;;;4944275;28;20943;-59
2023/03/07 02:46:03;;;;;;;16.03;15.00;;;5.50;23.90;;;;;;4952546;29;20478;-60
2023/03/07 02:48:29;;;;;;;17.37;16.07;;;5.40;24.10;;;;;;4952804;29;20833;-46
2023/03/07 02:50:55;;;;;;;16.40;15.10;;;5.30;24.30;;;;;;4952510;28;20547;-48
2023/03/07 02:53:21;;;;;;;17.57;16.23;;;5.20;24.50;;;;;;4951895;29;20187;-45
2023/03/07 02:55:46;;;;;;;18.27;16.87;;;5.30;24.10;;;;;;4952785;29;20186;-47
2023/03/07 02:58:12;;;;;;;17.00;15.70;;;5.30;24.10;;;;;;4952236;29;20510;-45
2023/03/07 03:00:37;;;;;;;17.70;16.53;;;5.40;24.20;;;;;;4968427;28;20645;-44
2023/03/07 03:03:03;;;;;;;17.33;16.20;;;5.30;24.40;;;;;;4952458;29;20215;-45
2023/03/07 03:05:29;;;;;;;17.40;16.10;;;5.20;24.70;;;;;;4951661;28;20211;-46
2023/03/07 03:07:55;;;;;;;17.97;16.67;;;5.30;24.30;;;;;;4952373;28;20202;-45
2023/03/07 03:10:21;;;;;;;17.27;16.07;;;5.20;24.60;;;;;;4951903;29;20218;-45
2023/03/07 03:12:46;;;;;;;17.83;16.63;;;5.30;24.70;;;;;;4952330;28;20455;-44
2023/03/07 03:15:12;;;;;;;17.17;15.97;;;5.30;24.90;;;;;;4952491;29;20843;-48
2023/03/07 03:17:38;;;;;;;16.83;15.63;;;5.30;24.60;;;;;;4952372;29;20214;-45
2023/03/07 03:20:06;;;;;;;17.70;16.40;;;5.40;24.40;;;;;;4952084;29;20526;-59
2023/03/07 03:22:32;;;;;;;17.57;16.27;;;5.50;24.10;;;;;;4951676;29;20405;-60
2023/03/07 03:24:58;;;;;;;16.73;15.57;;;5.40;24.50;;;;;;4951837;28;20541;-60
2023/03/07 03:27:23;;;;;;;17.40;16.30;;;5.30;24.60;;;;;;4951825;29;20423;-60
2023/03/07 03:29:49;;;;;;;18.93;17.63;;;5.10;25.00;;;;;;4952657;29;20180;-60
2023/03/07 03:32:15;;;;;;;20.30;18.90;;;4.90;25.40;;;;;;4952574;29;20691;-59
2023/03/07 03:34:40;;;;;;;19.83;18.40;;;4.80;25.50;;;;;;4968515;28;20184;-60
2023/03/07 03:37:06;;;;;;;19.70;18.40;;;4.80;26.00;;;;;;4952992;29;20198;-60
2023/03/07 03:39:32;;;;;;;18.63;17.27;;;4.80;25.70;;;;;;4953345;28;20187;-60
2023/03/07 03:41:58;;;;;;;18.60;17.30;;;4.80;25.80;;;;;;4952025;29;20445;-60
2023/03/07 03:44:23;;;;;;;18.03;16.60;;;4.80;26.00;;;;;;4951342;29;20215;-58
2023/03/07 03:46:49;;;;;;;18.60;17.40;;;4.80;25.90;;;;;;4952084;29;20182;-60
2023/03/07 03:49:15;;;;;;;18.90;17.60;;;4.80;26.10;;;;;;4952017;29;20218;-60
2023/03/07 03:51:41;;;;;;;19.77;18.37;;;4.80;26.10;;;;;;4951969;28;20211;-60
2023/03/07 03:54:19;;;;;;;18.77;17.47;;;4.80;26.20;;;;;;4952166;29;20465;-60
2023/03/07 03:56:44;;;;;;;20.70;19.30;;;4.80;26.00;;;;;;4940942;29;20215;-58
2023/03/07 03:59:10;;;;;;;19.70;18.20;;;4.70;26.20;;;;;;4949820;28;20839;-60
2023/03/07 04:01:36;;;;;;;18.40;17.10;;;4.80;26.30;;;;;;4951886;29;20238;-57
2023/03/07 04:04:01;;;;;;;19.23;17.93;;;4.90;26.10;;;;;;4951164;29;20191;-59
2023/03/07 04:06:29;;;;;;;18.33;17.13;;;4.80;26.30;;;;;;4951419;29;20187;-58
2023/03/07 04:08:56;;;;;;;19.17;17.87;;;4.80;26.20;;;;;;4951004;29;20222;-57
2023/03/07 04:11:23;;;;;;;18.40;17.20;;;4.80;26.20;;;;;;4951532;29;20833;-58
2023/03/07 04:13:49;;;;;;;18.30;17.00;;;4.70;26.30;;;;;;4951825;29;20916;-60
2023/03/07 04:16:15;;;;;;;18.63;17.33;;;4.70;26.40;;;;;;4952078;29;20430;-60
2023/03/07 04:18:41;;;;;;;20.60;19.07;;;4.80;26.50;;;;;;4951930;28;20800;-58
2023/03/07 04:21:09;;;;;;;18.70;17.40;;;4.70;26.30;;;;;;4948583;29;20500;-59
2023/03/07 04:23:36;;;;;;;19.20;17.83;;;4.70;26.60;;;;;;4950951;29;20489;-60
2023/03/07 04:26:03;;;;;;;18.00;16.70;;;4.70;26.60;;;;;;4969500;28;20844;-59
2023/03/07 04:28:44;;;;;;;19.33;17.83;;;4.80;26.50;;;;;;4950595;29;20415;-60
2023/03/07 04:31:17;;;;;;;19.20;17.80;;;4.80;26.20;;;;;;4963485;28;20529;-59
2023/03/07 04:33:43;;;;;;;20.73;19.17;;;4.80;26.20;;;;;;4951427;29;20485;-59
2023/03/07 04:36:10;;;;;;;19.03;17.73;;;4.70;26.90;;;;;;4950516;28;20427;-59
2023/03/07 04:38:37;;;;;;;18.23;16.80;;;4.70;26.70;;;;;;4950285;29;20426;-60
2023/03/07 04:41:04;;;;;;;19.43;17.97;;;4.70;26.90;;;;;;4950104;28;20442;-59
2023/03/07 04:43:30;;;;;;;19.90;18.27;;;4.70;26.90;;;;;;4950363;29;20434;-59
2023/03/07 04:45:56;;;;;;;20.87;19.30;;;4.80;26.60;;;;;;4950131;29;20978;-58
2023/03/07 04:48:21;;;;;;;19.13;17.63;;;4.80;26.40;;;;;;4956499;28;20178;-59
2023/03/07 04:50:51;;;;;;;18.83;17.53;;;4.80;26.40;;;;;;4950640;29;20281;-59
2023/03/07 04:53:18;;;;;;;18.90;17.60;;;4.90;26.10;;;;;;4950509;29;20665;-60
2023/03/07 04:55:44;;;;;;;19.63;18.10;;;5.00;25.80;;;;;;4964002;28;20424;-59
2023/03/07 04:58:11;;;;;;;18.23;16.83;;;5.00;25.60;;;;;;4966504;28;20561;-58
2023/03/07 05:00:40;;;;;;;18.47;17.27;;;5.10;25.70;;;;;;4948807;29;20427;-59
2023/03/07 05:03:08;;;;;;;19.20;17.77;;;5.20;25.40;;;;;;4952847;28;20431;-59
2023/03/07 05:05:33;;;;;;;18.83;17.30;;;5.10;25.30;;;;;;4952268;28;20470;-59
2023/03/07 05:07:59;;;;;;;19.67;18.10;;;5.10;25.50;;;;;;4951612;28;20534;-59
2023/03/07 05:10:25;;;;;;;20.37;18.77;;;5.10;25.50;;;;;;4952430;29;20188;-59
2023/03/07 05:12:50;;;;;;;19.13;17.73;;;5.10;25.60;;;;;;4952070;29;21005;-59
2023/03/07 05:15:16;;;;;;;19.83;18.47;;;5.10;25.40;;;;;;4952755;29;20183;-59
2023/03/07 05:17:42;;;;;;;19.20;17.80;;;5.00;25.80;;;;;;4952332;28;20183;-59
2023/03/07 05:20:09;;;;;;;19.30;17.90;;;5.00;25.70;;;;;;4952529;29;20555;-59
2023/03/07 05:22:35;;;;;;;19.60;18.20;;;4.90;25.80;;;;;;4953092;28;20640;-59
2023/03/07 05:25:01;;;;;;;17.50;16.23;;;5.00;25.80;;;;;;4953310;28;20521;-58
2023/03/07 05:27:27;;;;;;;18.30;17.00;;;5.10;25.70;;;;;;4952504;29;20419;-59
2023/03/07 05:29:53;;;;;;;18.10;16.90;;;5.00;25.70;;;;;;4953450;28;20187;-59
2023/03/07 05:32:18;;;;;;;18.10;16.77;;;5.00;25.60;;;;;;4953123;29;20434;-60
2023/03/07 05:34:45;;;;;;;18.63;17.30;;;5.10;25.70;;;;;;4969375;28;20215;-57
2023/03/07 05:37:11;;;;;;;18.30;17.03;;;5.00;25.50;;;;;;4953587;29;20458;-56
2023/03/07 05:39:37;;;;;;;17.93;16.63;;;5.00;25.60;;;;;;4949025;29;20466;-58
2023/03/07 05:42:03;;;;;;;18.70;17.30;;;5.00;25.30;;;;;;4952857;29;20699;-57
2023/03/07 05:44:29;;;;;;;19.50;18.10;;;5.10;25.30;;;;;;4952216;29;20463;-44
2023/03/07 05:46:54;;;;;;;18.13;16.83;;;5.00;25.50;;;;;;4952587;29;20935;-45
2023/03/07 05:49:20;;;;;;;17.33;16.00;;;5.00;25.50;;;;;;4950790;29;20194;-55
2023/03/07 05:51:46;;;;;;;18.47;16.87;;;5.10;25.80;;;;;;4950608;29;20629;-55
2023/03/07 05:54:11;;;;;;;17.47;16.20;;;5.10;25.00;;;;;;4951032;28;20190;-57
2023/03/07 05:56:37;;;;;;;18.93;17.53;;;5.00;25.40;;;;;;4944767;29;20313;-57
2023/03/07 05:59:03;;;;;;;18.00;16.43;;;4.90;25.40;;;;;;4951184;29;20731;-57
2023/03/07 06:01:28;;;;;;;17.90;16.43;;;4.90;25.70;;;;;;4951964;29;20187;-55
2023/03/07 06:03:54;;;;;;;18.30;16.90;;;4.90;25.50;;;;;;4952361;29;20942;-47
2023/03/07 06:06:19;;;;;;;17.73;16.53;;;4.80;25.50;;;;;;4951216;29;20215;-44
2023/03/07 06:08:45;;;;;;;18.40;17.07;;;4.80;25.50;;;;;;4952072;29;20254;-48
2023/03/07 06:11:11;;;;;;;18.60;17.20;;;4.80;25.60;;;;;;4951888;29;20601;-51
2023/03/07 06:13:36;;;;;;;18.40;17.10;;;4.90;25.40;;;;;;4952214;29;20222;-52
2023/03/07 06:16:02;;;;;;;19.27;17.77;;;4.90;25.00;;;;;;4961085;28;20672;-49
2023/03/07 06:18:28;;;;;;;16.90;15.67;;;4.90;25.40;;;;;;4952699;28;20705;-46
2023/03/07 06:21:02;;;;;;;17.30;16.10;;;4.90;25.30;;;;;;4952142;28;20446;-45
2023/03/07 06:23:29;;;;;;;16.70;15.50;;;4.90;25.10;;;;;;4951765;29;20278;-46
2023/03/07 06:25:56;;;;;;;18.30;16.90;;;5.00;24.70;;;;;;4951880;29;20466;-46
2023/03/07 06:28:21;;;;;;;17.87;16.57;;;5.00;24.60;;;;;;4950277;29;20458;-46
2023/03/07 06:30:47;;;;;;;17.10;15.90;;;5.00;24.90;;;;;;4951446;29;20442;-45
2023/03/07 06:33:14;;;;;;;17.43;16.00;;;5.00;24.80;;;;;;4951845;28;20246;-46
2023/03/07 06:35:40;;;;;;;19.07;17.67;;;5.00;25.10;;;;;;4940922;28;20548;-46
2023/03/07 06:38:06;;;;;;;18.03;16.63;;;5.10;24.70;;;;;;4965393;28;20462;-50
2023/03/07 06:40:32;;;;;;;18.27;16.77;;;4.90;24.50;;;;;;4951331;29;20437;-58
2023/03/07 06:42:58;;;;;;;17.23;16.00;;;4.90;24.40;;;;;;4951896;29;20423;-58
2023/03/07 06:45:24;;;;;;;17.90;16.60;;;4.90;24.80;;;;;;4952107;28;20471;-59
2023/03/07 06:47:50;;;;;;;16.90;15.70;;;5.00;24.70;;;;;;4952332;29;20547;-58
2023/03/07 06:50:16;;;;;;;17.83;16.50;;;5.00;24.60;;;;;;4951256;29;20435;-58
2023/03/07 06:52:41;;;;;;;18.40;16.90;;;4.90;24.60;;;;;;4949176;29;20234;-59
2023/03/07 06:55:08;;;;;;;18.70;17.27;;;4.90;24.80;;;;;;4967265;28;20422;-48
2023/03/07 06:57:34;;;;;;;18.67;17.40;;;5.00;24.70;;;;;;4966967;28;20552;-58
2023/03/07 07:00:04;;;;;;;18.97;17.50;;;4.90;24.80;;;;;;4965281;28;20421;-59
2023/03/07 07:02:30;;;;;;;18.40;17.00;;;5.00;24.60;;;;;;4952033;28;20414;-59
2023/03/07 07:04:57;;;;;;;17.83;16.63;;;5.00;24.40;;;;;;4950630;29;20463;-59
2023/03/07 07:07:23;;;;;;;18.17;16.77;;;5.10;24.60;;;;;;4966652;28;20443;-58
2023/03/07 07:09:49;;;;;;;17.17;16.00;;;5.20;24.20;;;;;;4951959;28;20420;-59
2023/03/07 07:12:15;;;;;;;17.20;15.90;;;5.20;24.30;;;;;;4951544;29;20474;-59
2023/03/07 07:14:41;;;;;;;17.53;16.27;;;5.30;24.50;;;;;;4968461;28;20761;-59
2023/03/07 07:17:06;;;;;;;17.80;16.50;;;5.20;24.30;;;;;;4951752;29;20274;-59
2023/03/07 07:19:33;;;;;;;17.73;16.33;;;5.20;24.60;;;;;;4967140;28;20225;-60
2023/03/07 07:21:58;;;;;;;16.60;15.40;;;5.10;24.60;;;;;;4951284;29;20308;-59
2023/03/07 07:24:25;;;;;;;18.40;16.80;;;5.20;24.70;;;;;;4966355;28;20482;-59
2023/03/07 07:26:50;;;;;;;17.63;16.33;;;5.30;24.70;;;;;;4950707;29;20192;-58
2023/03/07 07:29:16;;;;;;;17.63;16.37;;;5.30;24.20;;;;;;4951485;28;20415;-58
2023/03/07 07:31:42;;;;;;;17.40;16.20;;;5.40;24.60;;;;;;4954336;29;20532;-59
2023/03/07 07:34:07;;;;;;;16.90;15.70;;;5.40;24.30;;;;;;4955461;29;20180;-59
2023/03/07 07:36:33;;;;;;;17.37;15.97;;;5.50;23.90;;;;;;4955099;29;20183;-60
2023/03/07 07:39:03;;;;;;;18.10;16.63;;;5.50;23.90;;;;;;4956588;28;20267;-60
2023/03/07 07:41:30;;;;;;;16.20;15.10;;;5.40;24.20;;;;;;4954815;29;20187;-59
2023/03/07 07:43:55;;;;;;;17.00;15.80;;;5.50;23.80;;;;;;4971041;28;20430;-59
2023/03/07 07:46:21;;;;;;;16.57;15.37;;;5.60;23.70;;;;;;4954775;29;20479;-59
2023/03/07 07:48:47;;;;;;;16.90;15.60;;;5.60;23.40;;;;;;4970905;28;20180;-59
2023/03/07 07:51:12;;;;;;;17.37;16.17;;;5.70;23.40;;;;;;4954523;29;20246;-59
2023/03/07 07:53:38;;;;;;;17.43;16.03;;;5.70;23.20;;;;;;4951531;29;20180;-45
2023/03/07 07:56:04;;;;;;;17.27;16.07;;;5.70;23.30;;;;;;4954720;29;20222;-52
2023/03/07 07:58:29;;;;;;;16.80;15.37;;;5.80;23.50;;;;;;4954530;28;20195;-47
2023/03/07 08:00:55;;;;;;;17.17;15.87;;;5.80;23.70;;;;;;4954462;28;20516;-59
2023/03/07 08:03:21;;;;;;;18.20;16.90;;;5.80;23.00;;;;;;4954294;28;20187;-59
2023/03/07 08:05:47;;;;;;;16.70;15.47;;;5.90;23.10;;;;;;4970665;28;20294;-58
2023/03/07 08:08:22;;;;;;;16.37;15.27;;;6.00;22.80;;;;;;4953904;29;20226;-60
2023/03/07 08:10:48;;;;;;;15.90;14.90;;;6.00;23.00;;;;;;4969600;28;20422;-48
2023/03/07 08:13:16;;;;;;;17.27;15.70;;;5.90;23.00;;;;;;4953712;29;20431;-59
2023/03/07 08:15:42;;;;;;;18.50;16.87;;;5.90;22.90;;;;;;4970073;28;20191;-59
2023/03/07 08:18:09;;;;;;;17.60;16.40;;;5.90;23.00;;;;;;4954282;28;20431;-57
2023/03/07 08:20:36;;;;;;;17.57;16.37;;;6.00;22.90;;;;;;4957665;28;20187;-58
2023/03/07 08:23:02;;;;;;;16.83;15.67;;;6.10;23.00;;;;;;4954110;29;20419;-59
2023/03/07 08:25:28;;;;;;;16.67;15.37;;;6.00;22.90;;;;;;4954116;28;20463;-59
2023/03/07 08:27:54;;;;;;;18.17;16.97;;;6.10;22.90;;;;;;4954599;28;20180;-60
2023/03/07 08:30:22;;;;;;;15.93;14.90;;;6.10;23.20;;;;;;4970332;28;20442;-57
2023/03/07 08:32:49;;;;;;;17.60;16.40;;;6.20;22.90;;;;;;4969885;28;20811;-56
2023/03/07 08:35:15;;;;;;;18.57;17.17;;;6.10;22.70;;;;;;4953682;28;20434;-59
2023/03/07 08:37:41;;;;;;;19.87;18.23;;;6.20;22.90;;;;;;4970931;28;20943;-59
2023/03/07 08:40:07;;;;;;;17.90;16.50;;;6.20;22.70;;;;;;4954111;28;20423;-47
2023/03/07 08:42:33;;;;;;;17.43;15.90;;;6.30;22.70;;;;;;4953449;28;20210;-50
2023/03/07 08:44:58;;;;;;;16.70;15.70;;;6.30;22.30;;;;;;4969435;28;20489;-50
2023/03/07 08:47:24;;;;;;;17.17;15.97;;;6.30;22.60;;;;;;4953556;28;20193;-51
2023/03/07 08:49:50;;;;;;;18.37;17.17;;;6.50;21.80;;;;;;4953603;28;20192;-49
2023/03/07 08:52:15;;;;;;;18.57;17.07;;;6.60;22.30;;;;;;4953291;29;20266;-49
2023/03/07 08:54:41;;;;;;;16.23;15.13;;;6.70;21.90;;;;;;4969484;28;20769;-46
2023/03/07 08:57:07;;;;;;;15.60;14.50;;;6.70;21.90;;;;;;4953891;29;20218;-57
2023/03/07 08:59:32;;;;;;;14.77;13.87;;;6.70;20.60;;;;;;4953285;28;20195;-57
2023/03/07 09:01:58;;;;;;;16.40;15.27;;;6.50;21.70;;;;;;4952833;29;20195;-57
2023/03/07 09:04:23;;;;;;;15.30;14.20;;;6.50;21.20;;;;;;4953170;29;20274;-57
2023/03/07 09:06:49;;;;;;;15.43;14.30;;;6.50;21.40;;;;;;4953871;29;20645;-57
2023/03/07 09:09:15;;;;;;;14.83;13.83;;;6.50;21.20;;;;;;4952972;28;20207;-54
2023/03/07 09:11:40;;;;;;;15.13;14.23;;;6.50;21.70;;;;;;4953403;28;20663;-57
2023/03/07 09:14:06;;;;;;;14.90;14.00;;;6.70;20.80;;;;;;4969227;28;20187;-57
2023/03/07 09:16:32;;;;;;;14.70;13.80;;;6.60;20.40;;;;;;4954819;28;20675;-54
2023/03/07 09:18:57;;;;;;;14.00;13.10;;;6.60;20.30;;;;;;4969374;28;20183;-57
2023/03/07 09:21:23;;;;;;;14.60;13.60;;;6.50;20.10;;;;;;4952541;28;20237;-57
2023/03/07 09:23:49;;;;;;;16.07;14.73;;;6.60;20.30;;;;;;4953037;29;20180;-57
2023/03/07 09:26:15;;;;;;;16.13;15.00;;;6.70;19.80;;;;;;4954504;28;20215;-57
2023/03/07 09:28:41;;;;;;;14.30;13.40;;;7.00;19.60;;;;;;4969050;28;20628;-56
2023/03/07 09:31:08;;;;;;;13.63;12.77;;;6.90;18.90;;;;;;4954119;28;20262;-56
2023/03/07 09:33:34;;;;;;;13.90;12.90;;;6.80;18.90;;;;;;4952993;29;20439;-55
2023/03/07 09:36:03;;;;;;;13.67;12.77;;;6.70;18.70;;;;;;4959266;28;20517;-56
2023/03/07 09:38:29;;;;;;;13.70;12.80;;;6.80;18.80;;;;;;4955934;28;20517;-57
2023/03/07 09:41:00;;;;;;;15.03;13.93;;;7.00;18.80;;;;;;4952995;28;20498;-55
2023/03/07 09:43:42;;;;;;;13.43;12.60;;;6.90;18.80;;;;;;4949998;29;20227;-58
2023/03/07 09:46:49;;;;;;;14.63;13.43;;;6.90;18.80;;;;;;4953234;29;20478;-56
2023/03/07 09:49:26;;;;;;;13.00;12.20;;;7.00;18.50;;;;;;4910738;29;20444;-56
2023/03/07 09:51:57;;;;;;;12.80;11.80;;;7.20;18.40;;;;;;4894638;29;20464;-59
2023/03/07 09:54:38;;;;;;;14.10;13.10;;;7.00;18.30;;;;;;4930168;29;20423;-60
2023/03/07 09:57:12;;;;;;;12.80;12.00;;;6.90;18.60;;;;;;4952920;29;20450;-59
2023/03/07 09:59:42;;;;;;;13.87;12.80;;;6.90;19.30;;;;;;4950156;29;20782;-60
2023/03/07 10:02:32;;;;;;;13.40;12.60;;;6.90;18.40;;;;;;4960739;28;20411;-58
2023/03/07 10:05:27;;;;;;;13.30;12.40;;;6.80;17.90;;;;;;4968762;28;20466;-45
2023/03/07 10:07:53;;;;;;;13.33;12.43;;;6.70;18.10;;;;;;4960803;28;20458;-46
2023/03/07 10:10:30;;;;;;;13.30;12.40;;;6.50;18.00;;;;;;4965918;28;20513;-45
2023/03/07 10:13:28;;;;;;;12.77;12.03;;;6.50;18.40;;;;;;4965839;28;20475;-46
2023/03/07 10:15:56;;;;;;;12.90;12.00;;;6.60;18.50;;;;;;4948716;29;20420;-47
2023/03/07 10:18:48;;;;;;;13.33;12.53;;;6.50;18.00;;;;;;4965626;28;20869;-45
2023/03/07 10:21:24;;;;;;;13.43;12.43;;;6.50;18.00;;;;;;4965246;28;20769;-45
2023/03/07 10:24:10;;;;;;;13.53;12.63;;;6.50;18.20;;;;;;4965687;28;20519;-46
2023/03/07 10:27:00;;;;;;;13.40;12.50;;;6.40;17.90;;;;;;4945175;28;20458;-51
2023/03/07 10:29:30;;;;;;;12.70;11.90;;;6.30;18.00;;;;;;4968114;28;20995;-50
2023/03/07 10:32:11;;;;;;;13.13;12.00;;;6.30;18.30;;;;;;4952286;29;20417;-46
2023/03/07 10:34:38;;;;;;;13.30;12.43;;;6.40;18.30;;;;;;4968005;28;20502;-58
2023/03/07 10:37:12;;;;;;;12.80;11.90;;;6.50;18.10;;;;;;4959377;28;20423;-58
2023/03/07 10:39:51;;;;;;;12.63;11.53;;;6.40;18.40;;;;;;4945209;29;20496;-58
2023/03/07 10:42:20;;;;;;;12.57;11.67;;;6.30;18.10;;;;;;4953210;28;20434;-57
2023/03/07 10:44:47;;;;;;;13.40;12.57;;;6.30;17.80;;;;;;4968677;28;20466;-58
2023/03/07 10:47:26;;;;;;;13.87;12.97;;;6.20;17.70;;;;;;4968941;28;20447;-57
2023/03/07 10:50:15;;;;;;;13.70;12.47;;;6.40;18.00;;;;;;4968722;28;20415;-58
2023/03/07 10:52:48;;;;;;;13.43;12.50;;;6.50;17.60;;;;;;4952220;29;20431;-57
2023/03/07 10:55:37;;;;;;;13.43;12.63;;;6.50;16.90;;;;;;4968725;28;20478;-57
2023/03/07 10:58:19;;;;;;;12.83;11.90;;;6.70;17.00;;;;;;4968736;28;20423;-57
2023/03/07 11:01:05;;;;;;;13.00;12.20;;;6.70;17.10;;;;;;4967416;28;20434;-57
2023/03/07 11:03:52;;;;;;;13.90;12.90;;;7.00;16.50;;;;;;4966953;28;20468;-57
2023/03/07 11:06:26;;;;;;;13.70;12.80;;;7.20;15.60;;;;;;4954754;28;20972;-57
2023/03/07 11:08:52;;;;;;;14.33;13.40;;;6.80;16.50;;;;;;4966244;28;20434;-58
2023/03/07 11:11:30;;;;;;;13.07;12.23;;;6.70;16.50;;;;;;4955391;28;20840;-57
2023/03/07 11:14:09;;;;;;;14.27;13.30;;;6.60;16.20;;;;;;4956056;29;20957;-58
2023/03/07 11:16:59;;;;;;;12.90;12.07;;;6.70;16.60;;;;;;4952202;29;20479;-58
2023/03/07 11:19:33;;;;;;;14.90;13.77;;;6.70;16.30;;;;;;4936289;29;20483;-58
2023/03/07 11:22:02;;;;;;;13.03;12.00;;;6.90;16.30;;;;;;4951951;28;20758;-58
2023/03/07 11:24:36;;;;;;;14.30;13.30;;;7.00;16.00;;;;;;4952631;28;20474;-57
2023/03/07 11:27:02;;;;;;;13.07;12.17;;;7.10;16.30;;;;;;4968183;28;20442;-57
2023/03/07 11:29:27;;;;;;;14.50;13.50;;;7.30;15.50;;;;;;4955795;29;20519;-46
2023/03/07 11:32:13;;;;;;;14.70;13.50;;;7.10;15.50;;;;;;4955662;29;21137;-47
2023/03/07 11:34:49;;;;;;;13.50;12.60;;;6.90;15.70;;;;;;4955905;29;20214;-47
2023/03/07 11:37:38;;;;;;;13.10;12.30;;;6.70;15.60;;;;;;4955077;29;20433;-46
2023/03/07 11:40:12;;;;;;;14.03;13.03;;;6.60;16.20;;;;;;4956072;29;20426;-54
2023/03/07 11:42:45;;;;;;;14.33;13.13;;;6.50;16.20;;;;;;4955635;29;20432;-56
2023/03/07 11:45:46;;;;;;;15.00;13.77;;;6.50;16.40;;;;;;4955683;29;20475;-57
2023/03/07 11:48:32;;;;;;;13.73;12.73;;;6.40;16.40;;;;;;4955530;29;20415;-49
2023/03/07 11:50:59;;;;;;;14.03;13.03;;;6.50;16.70;;;;;;4955403;29;20421;-47
2023/03/07 11:54:03;;;;;;;14.07;13.07;;;6.40;16.30;;;;;;4955112;29;20415;-44
2023/03/07 11:56:37;;;;;;;13.20;12.20;;;6.50;15.80;;;;;;4954931;29;20506;-48
2023/03/07 11:59:08;;;;;;;13.60;12.70;;;6.50;16.40;;;;;;4955558;29;20919;-49
2023/03/07 12:01:55;;;;;;;12.27;11.47;;;6.50;15.70;;;;;;4955052;29;20493;-47
2023/03/07 12:04:54;;;;;;;12.20;11.40;;;6.40;15.60;;;;;;4955279;29;20426;-48
2023/03/07 12:07:42;;;;;;;12.53;11.80;;;6.40;16.00;;;;;;4955270;29;20447;-46
2023/03/07 12:10:15;;;;;;;12.73;11.87;;;6.50;15.50;;;;;;4955285;29;20778;-49
2023/03/07 12:12:54;;;;;;;12.30;11.50;;;6.60;15.50;;;;;;4955113;29;20407;-47
2023/03/07 12:15:50;;;;;;;13.00;11.90;;;6.70;15.60;;;;;;4955023;28;20481;-46
2023/03/07 12:18:53;;;;;;;13.37;12.43;;;6.90;15.20;;;;;;4950256;28;20426;-58
2023/03/07 12:21:27;;;;;;;13.30;12.43;;;7.00;15.30;;;;;;4970238;28;20943;-60
2023/03/07 12:24:05;;;;;;;13.57;12.67;;;6.80;15.50;;;;;;4971244;28;20431;-56
2023/03/07 12:26:47;;;;;;;12.20;11.43;;;6.60;15.60;;;;;;4971057;28;20470;-54
2023/03/07 12:29:39;;;;;;;13.20;12.00;;;6.60;15.50;;;;;;4971226;28;20450;-57
2023/03/07 12:32:26;;;;;;;12.67;11.73;;;6.60;16.00;;;;;;4965327;28;20807;-57
2023/03/07 12:34:57;;;;;;;13.33;12.33;;;6.50;15.70;;;;;;4954734;29;20466;-57
2023/03/07 12:37:38;;;;;;;14.03;13.03;;;6.50;16.00;;;;;;4970619;28;20454;-57
2023/03/07 12:40:15;;;;;;;14.07;13.07;;;6.60;15.50;;;;;;4971024;28;20430;-56
2023/03/07 12:43:05;;;;;;;13.20;12.20;;;6.60;15.70;;;;;;4970704;28;20423;-59
2023/03/07 12:46:00;;;;;;;13.73;12.83;;;6.70;15.20;;;;;;4970745;28;20494;-54
2023/03/07 12:48:43;;;;;;;15.00;14.00;;;6.90;15.30;;;;;;4926694;29;21008;-57